createdAt,value
2023-04-10T00:02:24.914Z,6.36
2023-04-10T00:05:03.429Z,6.33
2023-04-10T00:07:41.863Z,6.30
2023-04-10T00:10:09.940Z,6.25
2023-04-10T00:12:55.262Z,6.30
2023-04-10T00:15:22.709Z,6.16
2023-04-10T00:18:04.520Z,6.14
2023-04-10T00:20:32.576Z,6.10
2023-04-10T00:23:19.318Z,6.02
2023-04-10T00:25:53.745Z,5.90
2023-04-10T00:28:24.205Z,5.88
2023-04-10T00:30:57.559Z,5.76
2023-04-10T00:33:32.487Z,5.72
2023-04-10T00:36:03.464Z,5.71
2023-04-10T00:41:19.174Z,5.63
2023-04-10T00:43:49.222Z,5.60
2023-04-10T00:46:17.373Z,5.51
2023-04-10T00:48:47.797Z,5.47
2023-04-10T00:51:17.484Z,5.53
2023-04-10T00:53:55.552Z,5.47
2023-04-10T00:56:25.295Z,5.43
2023-04-10T00:58:52.649Z,5.40
2023-04-10T01:01:19.797Z,5.30
2023-04-10T01:03:50.177Z,5.25
2023-04-10T01:06:23.437Z,5.26
2023-04-10T01:08:56.093Z,5.34
2023-04-10T01:11:53.880Z,5.14
2023-04-10T01:14:57.909Z,5.10
2023-04-10T01:17:44.145Z,5.01
2023-04-10T01:20:17.075Z,4.90
2023-04-10T01:23:32.356Z,4.86
2023-04-10T01:26:11.766Z,4.82
2023-04-10T01:28:50.888Z,4.75
2023-04-10T01:31:26.328Z,4.72
2023-04-10T01:34:00.507Z,4.72
2023-04-10T01:36:38.780Z,4.66
2023-04-10T01:39:07.234Z,4.58
2023-04-10T01:41:38.667Z,4.50
2023-04-10T01:44:07.963Z,4.49
2023-04-10T01:46:37.605Z,4.44
2023-04-10T01:49:05.555Z,4.47
2023-04-10T01:51:34.718Z,4.44
2023-04-10T01:54:06.916Z,4.46
2023-04-10T01:56:35.346Z,4.44
2023-04-10T01:59:12.687Z,4.52
2023-04-10T02:05:31.313Z,4.17
2023-04-10T02:11:48.995Z,4.11
2023-04-10T02:14:39.237Z,4.03
2023-04-10T02:21:23.076Z,4.07
2023-04-10T02:24:30.315Z,4.13
2023-04-10T02:30:29.149Z,4.18
2023-04-10T02:33:16.332Z,4.29
2023-04-10T02:36:41.419Z,4.32
2023-04-10T02:39:14.884Z,4.36
2023-04-10T02:42:04.459Z,4.40
2023-04-10T02:47:32.322Z,4.48
2023-04-10T02:50:12.143Z,4.53
2023-04-10T02:52:59.754Z,4.51
2023-04-10T02:56:19.335Z,4.50
2023-04-10T02:58:48.850Z,4.52
2023-04-10T03:01:29.014Z,4.50
2023-04-10T03:04:03.239Z,4.54
2023-04-10T03:07:14.998Z,4.53
2023-04-10T03:10:06.984Z,4.60
2023-04-10T03:17:27.473Z,4.44
2023-04-10T03:20:00.727Z,4.41
2023-04-10T03:22:32.505Z,4.45
2023-04-10T03:25:03.093Z,4.45
2023-04-10T03:27:32.365Z,4.50
2023-04-10T03:29:59.095Z,4.51
2023-04-10T03:32:28.227Z,4.52
2023-04-10T03:34:54.825Z,4.60
2023-04-10T03:37:29.279Z,4.58
2023-04-10T03:39:59.888Z,4.56
2023-04-10T03:42:27.205Z,4.50
2023-04-10T03:44:54.087Z,4.57
2023-04-10T03:47:20.766Z,4.56
2023-04-10T03:49:47.465Z,4.57
2023-04-10T03:52:14.434Z,4.60
2023-04-10T03:54:41.191Z,4.60
2023-04-10T03:57:07.979Z,4.68
2023-04-10T03:59:38.629Z,4.60
2023-04-10T04:02:07.655Z,4.57
2023-04-10T04:04:34.834Z,4.57
2023-04-10T04:07:01.801Z,4.71
2023-04-10T04:09:28.976Z,4.70
2023-04-10T04:11:57.158Z,4.70
2023-04-10T04:14:24.181Z,4.74
2023-04-10T04:16:51.191Z,4.76
2023-04-10T04:19:20.414Z,4.80
2023-04-10T04:21:47.722Z,4.87
2023-04-10T04:24:14.832Z,4.94
2023-04-10T04:26:42.070Z,4.99
2023-04-10T04:29:09.028Z,4.97
2023-04-10T04:31:36.557Z,5.06
2023-04-10T04:34:05.871Z,5.12
2023-04-10T04:36:32.946Z,5.20
2023-04-10T04:38:59.914Z,5.24
2023-04-10T04:41:26.687Z,5.34
2023-04-10T04:43:55.942Z,5.37
2023-04-10T04:46:23.275Z,5.44
2023-04-10T04:48:54.518Z,5.54
2023-04-10T04:51:27.603Z,5.67
2023-04-10T04:53:58.105Z,5.74
2023-04-10T04:56:25.734Z,5.84
2023-04-10T04:58:53.311Z,5.87
2023-04-10T05:01:27.182Z,5.95
2023-04-10T05:04:24.237Z,5.99
2023-04-10T05:07:07.312Z,6.02
2023-04-10T05:09:34.061Z,6.17
2023-04-10T05:12:01.326Z,6.30
2023-04-10T05:14:28.261Z,6.34
2023-04-10T05:17:10.922Z,6.44
2023-04-10T05:19:37.689Z,6.50
2023-04-10T05:22:04.899Z,6.63
2023-04-10T05:24:32.221Z,6.74
2023-04-10T05:26:59.456Z,6.77
2023-04-10T05:29:27.031Z,6.87
2023-04-10T05:31:56.422Z,6.90
2023-04-10T05:34:25.832Z,7.07
2023-04-10T05:36:53.092Z,7.16
2023-04-10T05:39:19.834Z,7.20
2023-04-10T05:41:46.692Z,7.26
2023-04-10T05:44:24.189Z,7.42
2023-04-10T05:46:51.531Z,7.40
2023-04-10T05:49:18.432Z,7.44
2023-04-10T05:51:50.274Z,7.55
2023-04-10T05:54:17.520Z,7.74
2023-04-10T05:56:50.025Z,7.83
2023-04-10T05:59:16.818Z,7.81
2023-04-10T06:01:44.810Z,7.89
2023-04-10T06:04:11.571Z,7.97
2023-04-10T06:06:39.314Z,8.07
2023-04-10T06:09:08.076Z,8.20
2023-04-10T06:11:41.292Z,8.34
2023-04-10T06:14:08.670Z,8.42
2023-04-10T06:16:41.910Z,8.60
2023-04-10T06:19:18.672Z,8.73
2023-04-10T06:21:45.703Z,8.67
2023-04-10T06:24:13.038Z,8.73
2023-04-10T06:26:40.343Z,8.74
2023-04-10T06:29:07.687Z,8.87
2023-04-10T06:31:37.443Z,8.93
2023-04-10T06:34:04.426Z,9.09
2023-04-10T06:36:37.580Z,9.09
2023-04-10T06:39:08.534Z,9.07
2023-04-10T06:41:36.171Z,9.16
2023-04-10T06:44:06.919Z,9.20
2023-04-10T06:46:37.275Z,9.31
2023-04-10T06:49:07.576Z,9.28
2023-04-10T06:51:35.013Z,9.38
2023-04-10T06:54:02.295Z,9.35
2023-04-10T06:56:35.531Z,9.47
2023-04-10T06:59:03.636Z,9.54
2023-04-10T07:01:30.612Z,9.67
2023-04-10T07:03:57.575Z,9.84
2023-04-10T07:06:24.727Z,9.93
2023-04-10T07:08:51.754Z,10.04
2023-04-10T07:11:18.687Z,10.14
2023-04-10T07:13:49.443Z,10.21
2023-04-10T07:16:17.221Z,10.38
2023-04-10T07:18:47.540Z,10.64
2023-04-10T07:21:14.513Z,10.84
2023-04-10T07:23:41.313Z,11.11
2023-04-10T07:26:11.384Z,11.17
2023-04-10T07:28:38.729Z,11.27
2023-04-10T07:31:06.801Z,11.35
2023-04-10T07:33:35.448Z,11.50
2023-04-10T07:36:11.733Z,11.73
2023-04-10T07:38:38.842Z,12.13
2023-04-10T07:41:18.701Z,12.61
2023-04-10T07:43:46.287Z,12.83
2023-04-10T07:46:17.846Z,12.97
2023-04-10T07:48:51.728Z,12.88
2023-04-10T07:51:18.848Z,12.96
2023-04-10T07:54:12.210Z,12.95
2023-04-10T07:56:45.493Z,12.84
2023-04-10T07:59:24.792Z,12.83
2023-04-10T08:01:51.735Z,12.84
2023-04-10T08:04:30.708Z,12.83
2023-04-10T08:07:04.417Z,12.84
2023-04-10T08:09:34.511Z,12.83
2023-04-10T08:12:05.015Z,12.86
2023-04-10T08:14:43.441Z,12.79
2023-04-10T08:17:15.500Z,12.82
2023-04-10T08:19:45.730Z,12.79
2023-04-10T08:22:32.891Z,12.70
2023-04-10T08:25:01.551Z,12.78
2023-04-10T08:27:28.657Z,12.76
2023-04-10T08:29:56.024Z,12.67
2023-04-10T08:32:24.687Z,12.47
2023-04-10T08:34:51.541Z,12.27
2023-04-10T08:37:37.122Z,12.18
2023-04-10T08:40:12.853Z,11.92
2023-04-10T08:42:43.341Z,11.99
2023-04-10T08:45:10.950Z,12.22
2023-04-10T08:47:51.175Z,12.33
2023-04-10T08:50:19.013Z,12.19
2023-04-10T08:52:51.595Z,12.16
2023-04-10T08:55:19.997Z,12.37
2023-04-10T08:58:00.431Z,12.57
2023-04-10T09:00:28.616Z,12.66
2023-04-10T09:02:58.774Z,12.59
2023-04-10T09:05:28.246Z,12.62
2023-04-10T09:07:55.432Z,12.63
2023-04-10T09:10:27.618Z,12.77
2023-04-10T09:12:56.935Z,12.89
2023-04-10T09:15:23.964Z,12.96
2023-04-10T09:18:04.303Z,13.11
2023-04-10T09:20:32.786Z,13.12
2023-04-10T09:23:00.040Z,13.09
2023-04-10T09:25:43.698Z,12.92
2023-04-10T09:28:13.759Z,13.01
2023-04-10T09:30:42.497Z,12.92
2023-04-10T09:36:27.384Z,13.13
2023-04-10T09:38:59.565Z,13.11
2023-04-10T09:41:35.960Z,13.09
2023-04-10T09:50:40.923Z,12.92
2023-04-10T09:53:16.933Z,13.31
2023-04-10T09:55:44.345Z,13.65
2023-04-10T10:01:16.671Z,13.65
2023-04-10T10:03:44.168Z,13.46
2023-04-10T10:06:12.199Z,13.14
2023-04-10T10:08:39.218Z,12.76
2023-04-10T10:11:11.681Z,12.46
2023-04-10T10:13:41.663Z,12.35
2023-04-10T10:16:32.021Z,12.13
2023-04-10T10:19:07.022Z,12.11
2023-04-10T10:21:34.943Z,12.02
2023-04-10T10:24:03.087Z,11.86
2023-04-10T10:26:35.685Z,11.62
2023-04-10T10:29:05.652Z,11.48
2023-04-10T10:31:35.749Z,11.35
2023-04-10T10:34:08.328Z,11.32
2023-04-10T10:36:36.604Z,11.32
2023-04-10T10:39:40.751Z,11.43
2023-04-10T10:42:14.253Z,11.55
2023-04-10T10:44:52.599Z,11.67
2023-04-10T10:47:33.406Z,11.79
2023-04-10T10:50:02.495Z,11.89
2023-04-10T10:52:47.026Z,12.02
2023-04-10T10:55:22.764Z,11.98
2023-04-10T10:58:05.401Z,12.11
2023-04-10T11:01:01.999Z,12.24
2023-04-10T11:03:38.204Z,12.43
2023-04-10T11:06:08.646Z,12.68
2023-04-10T11:08:46.205Z,13.04
2023-04-10T11:11:24.430Z,13.20
2023-04-10T11:13:56.970Z,13.46
2023-04-10T11:16:46.761Z,13.68
2023-04-10T11:19:16.752Z,13.73
2023-04-10T11:22:15.969Z,13.77
2023-04-10T11:24:58.099Z,13.70
2023-04-10T11:27:46.535Z,13.80
2023-04-10T11:30:47.657Z,13.66
2023-04-10T11:33:17.977Z,13.53
2023-04-10T11:35:55.255Z,13.56
2023-04-10T11:38:22.868Z,13.52
2023-04-10T11:40:58.226Z,13.25
2023-04-10T11:43:25.179Z,13.20
2023-04-10T11:46:06.601Z,13.21
2023-04-10T11:48:43.209Z,13.14
2023-04-10T11:51:12.977Z,13.11
2023-04-10T11:53:40.857Z,12.97
2023-04-10T11:56:19.200Z,12.93
2023-04-10T11:58:54.997Z,12.82
2023-04-10T12:01:23.592Z,12.79
2023-04-10T12:03:51.168Z,12.81
2023-04-10T12:06:19.758Z,12.79
2023-04-10T12:08:54.177Z,12.91
2023-04-10T12:14:04.834Z,13.26
2023-04-10T12:16:34.758Z,13.55
2023-04-10T12:19:03.201Z,13.74
2023-04-10T12:21:35.890Z,13.81
2023-04-10T12:24:05.759Z,13.73
2023-04-10T12:26:33.014Z,13.66
2023-04-10T12:28:59.996Z,13.56
2023-04-10T12:31:40.089Z,13.39
2023-04-10T12:34:09.818Z,13.24
2023-04-10T12:36:40.630Z,13.20
2023-04-10T12:39:23.221Z,13.06
2023-04-10T12:41:50.127Z,12.98
2023-04-10T12:44:18.790Z,12.90
2023-04-10T12:46:46.238Z,12.94
2023-04-10T12:49:16.082Z,12.89
2023-04-10T12:51:47.497Z,12.93
2023-04-10T12:54:32.392Z,12.90
2023-04-10T12:56:59.873Z,12.96
2023-04-10T12:59:28.319Z,12.93
2023-04-10T13:01:55.695Z,12.86
2023-04-10T13:04:24.033Z,12.62
2023-04-10T13:06:54.466Z,12.41
2023-04-10T13:09:22.105Z,12.26
2023-04-10T13:11:51.520Z,12.07
2023-04-10T13:14:18.757Z,11.94
2023-04-10T13:16:46.226Z,11.73
2023-04-10T13:19:13.264Z,11.42
2023-04-10T13:21:40.069Z,11.34
2023-04-10T13:24:07.276Z,11.24
2023-04-10T13:26:34.260Z,10.91
2023-04-10T13:29:01.130Z,10.78
2023-04-10T13:31:38.274Z,10.66
2023-04-10T13:34:09.513Z,10.48
2023-04-10T13:36:36.710Z,10.24
2023-04-10T13:39:03.995Z,10.24
2023-04-10T13:41:31.185Z,10.20
2023-04-10T13:43:58.332Z,10.24
2023-04-10T13:46:26.256Z,10.22
2023-04-10T13:48:56.408Z,10.24
2023-04-10T13:51:26.587Z,10.38
2023-04-10T13:53:53.888Z,10.57
2023-04-10T13:56:21.777Z,10.75
2023-04-10T13:58:49.235Z,10.81
2023-04-10T14:01:22.031Z,10.88
2023-04-10T14:03:49.290Z,11.11
2023-04-10T14:06:16.637Z,11.13
2023-04-10T14:08:43.661Z,11.11
2023-04-10T14:11:10.599Z,11.19
2023-04-10T14:13:37.490Z,11.15
2023-04-10T14:16:04.642Z,11.21
2023-04-10T14:18:31.706Z,11.34
2023-04-10T14:20:58.614Z,11.51
2023-04-10T14:23:26.391Z,11.59
2023-04-10T14:25:53.469Z,11.70
2023-04-10T14:28:20.829Z,11.76
2023-04-10T14:30:52.027Z,11.90
2023-04-10T14:33:42.881Z,11.85
2023-04-10T14:36:08.922Z,11.81
2023-04-10T14:38:36.872Z,11.75
2023-04-10T14:41:03.874Z,11.75
2023-04-10T14:43:39.604Z,11.63
2023-04-10T14:46:06.964Z,11.56
2023-04-10T14:48:34.932Z,11.56
2023-04-10T14:51:02.482Z,11.62
2023-04-10T14:53:29.595Z,11.50
2023-04-10T14:55:56.925Z,11.52
2023-04-10T14:58:24.421Z,11.50
2023-04-10T15:00:52.343Z,11.24
2023-04-10T15:03:24.537Z,11.15
2023-04-10T15:05:59.590Z,10.96
2023-04-10T15:08:27.419Z,10.77
2023-04-10T15:11:11.551Z,10.69
2023-04-10T15:13:39.233Z,10.67
2023-04-10T15:16:08.394Z,10.66
2023-04-10T15:18:35.397Z,10.69
2023-04-10T15:21:05.310Z,10.71
2023-04-10T15:23:32.519Z,10.58
2023-04-10T15:25:59.954Z,10.46
2023-04-10T15:28:28.733Z,10.34
2023-04-10T15:30:58.763Z,10.18
2023-04-10T15:33:29.645Z,10.06
2023-04-10T15:36:03.084Z,10.08
2023-04-10T15:38:30.706Z,10.00
2023-04-10T15:41:00.758Z,9.84
2023-04-10T15:43:31.929Z,9.65
2023-04-10T15:46:05.159Z,9.70
2023-04-10T15:48:35.934Z,9.49
2023-04-10T15:51:07.751Z,9.34
2023-04-10T15:53:35.613Z,9.27
2023-04-10T15:56:05.981Z,9.26
2023-04-10T15:58:34.150Z,9.21
2023-04-10T16:01:04.263Z,9.18
2023-04-10T16:03:35.012Z,9.17
2023-04-10T16:06:02.318Z,9.22
2023-04-10T16:08:29.597Z,9.26
2023-04-10T16:11:00.645Z,9.23
2023-04-10T16:13:28.288Z,9.18
2023-04-10T16:15:58.637Z,9.20
2023-04-10T16:18:29.545Z,9.16
2023-04-10T16:21:06.123Z,9.11
2023-04-10T16:23:39.084Z,9.14
2023-04-10T16:26:11.443Z,9.11
2023-04-10T16:28:38.828Z,9.04
2023-04-10T16:31:18.089Z,8.98
2023-04-10T16:33:57.969Z,8.97
2023-04-10T16:36:29.040Z,9.03
2023-04-10T16:39:19.992Z,9.00
2023-04-10T16:41:47.118Z,8.97
2023-04-10T16:44:15.056Z,8.84
2023-04-10T16:47:01.334Z,8.76
2023-04-10T16:49:29.797Z,8.69
2023-04-10T16:51:56.806Z,8.65
2023-04-10T16:54:28.948Z,8.60
2023-04-10T16:57:00.374Z,8.54
2023-04-10T16:59:27.485Z,8.42
2023-04-10T17:05:06.272Z,8.35
2023-04-10T17:07:38.427Z,8.29
2023-04-10T17:10:06.152Z,8.16
2023-04-10T17:12:33.132Z,8.14
2023-04-10T17:15:06.406Z,8.11
2023-04-10T17:17:54.766Z,8.04
2023-04-10T17:20:48.401Z,8.03
2023-04-10T17:23:19.653Z,7.95
2023-04-10T17:28:30.560Z,7.98
2023-04-10T17:31:10.432Z,7.85
2023-04-10T17:36:49.963Z,7.77
2023-04-10T17:39:26.838Z,7.72
2023-04-10T17:41:58.260Z,7.68
2023-04-10T17:44:33.063Z,7.72
2023-04-10T17:47:47.015Z,7.79
2023-04-10T17:50:22.124Z,7.71
2023-04-10T17:53:32.846Z,7.66
2023-04-10T17:56:07.893Z,7.62
2023-04-10T17:58:54.136Z,7.67
2023-04-10T18:01:31.589Z,7.67
2023-04-10T18:04:00.586Z,7.59
2023-04-10T18:06:33.025Z,7.65
2023-04-10T18:09:16.660Z,7.66
2023-04-10T18:11:58.593Z,7.68
2023-04-10T18:14:32.858Z,7.63
2023-04-10T18:17:57.763Z,7.61
2023-04-10T18:20:35.762Z,7.66
2023-04-10T18:23:16.036Z,7.65
2023-04-10T18:26:07.770Z,7.69
2023-04-10T18:28:57.476Z,7.71
2023-04-10T18:31:42.284Z,7.74
2023-04-10T18:34:57.528Z,7.80
2023-04-10T18:37:48.088Z,7.87
2023-04-10T18:40:48.293Z,7.83
2023-04-10T18:43:30.390Z,7.79
2023-04-10T18:49:40.268Z,7.71
2023-04-10T18:52:08.631Z,7.78
2023-04-10T18:54:39.056Z,7.79
2023-04-10T18:57:52.062Z,7.74
2023-04-10T19:00:20.256Z,7.73
2023-04-10T19:02:58.788Z,7.73
2023-04-10T19:09:09.082Z,7.59
2023-04-10T19:11:37.203Z,7.59
2023-04-10T19:14:05.032Z,7.62
2023-04-10T19:24:42.429Z,7.61
2023-04-10T19:31:44.762Z,7.53
2023-04-10T20:03:53.722Z,7.19
2023-04-10T20:07:30.874Z,7.23
2023-04-10T20:10:24.279Z,7.27
2023-04-10T20:16:47.239Z,7.44
2023-04-10T20:43:19.558Z,7.48
2023-04-10T20:46:16.328Z,7.46
2023-04-10T20:48:57.690Z,7.51
2023-04-10T20:51:42.252Z,7.53
2023-04-10T21:15:14.133Z,7.50
2023-04-10T21:19:27.169Z,7.42
2023-04-10T21:37:03.860Z,7.30
2023-04-10T21:40:15.656Z,7.22
2023-04-10T21:43:58.146Z,7.15
2023-04-10T22:13:06.762Z,7.52
2023-04-10T22:49:25.957Z,7.27
2023-04-10T22:52:38.899Z,7.24
2023-04-10T22:55:42.062Z,7.24
2023-04-10T23:07:03.249Z,7.28
2023-04-10T23:13:41.278Z,7.15
2023-04-10T23:20:31.097Z,7.19
2023-04-10T23:33:36.455Z,7.06
2023-04-10T23:45:01.912Z,7.09
2023-04-10T23:56:18.767Z,7.01
